Current | Forecast
Updated: 10:25 AM CEST on April 24, 2018
Observed at Kleine Brogel, Belgium
Temperature 11°C
Humidity 82%
Dew Point 8°C
Wind SW at 18 km/h
Pressure 1018 hPa (Steady)
Conditions Mostly Cloudy
Visibility 10.0 kilometers
UV 2 out of 16
Clouds Mostly Cloudy (BKN) : 396 m
Mostly Cloudy (BKN) : 1219 m
Yesterday's Maximum 19°C
Yesterday's Minimum 11°C approx.
Yesterday's Heating Degree Days 6 approx.
Sunrise6:24 AM CEST
Sunset8:48 PM CEST
Moon Rise2:06 PM CEST
Moon Set4:18 AM CEST
Moon PhaseMoon Phase
Waxing Gibbous
Raw METARMETAR EBBL 240825Z 22010KT 9999 BKN013 BKN040 11/08 Q1018 GRN WHT TEMPO GRN


Monday
. High: 62° F.
Tuesday
. High: 66° F.
Wednesday
. High: 71° F.
Thursday
. High: 60° F.
Friday
. High: 62° F.
Saturday
. High: 73° F.
Sunday
. High: 64° F.
Monday
. High: 69° F.

Units: English | Metric

Find the Weather for any City, State or Zipcode, or Country:

U.S. State List | Severe Weather | Tropical Storms | Ski Conditions
United States | Canada | Central America | South America | Asia | Europe | Australia | Africa | Islands

Weather Underground

© Copyright 2018
The Weather Company, LLC